KGVW/GVW METAR and TAF weather

Enter ICAO airport designator
Station Type Date Time Source
KGVW METAR 2024/04/17 18:55 UTC NOAA

KGVW 171855Z AUTO 11010KT 4SM BR CLR 23/22 A2999 RMK A01


Station Type Date Time Source
KGVW Decoded METAR 2024/04/17 18:55 UTC NOAA

Kansas City, Richards-Gebaur Airport, MO, United States (KGVW) 38-50-06N 094-33-41W 337M
Apr 17, 2024 - 02:55 PM EDT / 2024.04.17 1855 UTC
Wind: from the ESE (110 degrees) at 12 MPH (10 KT):0
Visibility: 4 mile(s):0
Sky conditions: clear
Weather: mist
Temperature: 73 F (23 C)
Dew Point: 71 F (22 C)
Relative Humidity: 94%
Pressure (altimeter): 29.99 in. Hg (1015 hPa)
ob: KGVW 171855Z AUTO 11010KT 4SM BR CLR 23/22 A2999 RMK A01
cycle: 19

Station Type Date Time Source
KGVW TAF UTC NOAA

Error!

Example: see airport list